createdAt,value
2018-09-04T00:07:52.889Z,18.90
2018-09-04T00:17:54.171Z,12.97
2018-09-04T00:27:55.575Z,14.00
2018-09-04T00:37:57.596Z,14.13
2018-09-04T00:47:59.751Z,14.63
2018-09-04T00:58:01.035Z,15.03
2018-09-04T01:08:02.323Z,14.07
2018-09-04T01:18:03.628Z,18.27
2018-09-04T01:28:04.882Z,15.20
2018-09-04T01:38:07.089Z,13.87
2018-09-04T01:48:08.370Z,11.33
2018-09-04T01:58:09.631Z,15.80
2018-09-04T02:08:10.891Z,11.57
2018-09-04T02:18:12.191Z,13.77
2018-09-04T02:28:13.456Z,11.40
2018-09-04T02:38:14.746Z,14.43
2018-09-04T02:48:16.010Z,11.67
2018-09-04T02:58:17.344Z,9.10
2018-09-04T03:08:18.615Z,6.43
2018-09-04T03:18:20.104Z,12.63
2018-09-04T03:28:21.387Z,7.93
2018-09-04T03:38:22.687Z,8.67
2018-09-04T03:48:23.981Z,7.13
2018-09-04T03:58:25.252Z,7.27
2018-09-04T04:08:26.511Z,7.23
2018-09-04T04:18:27.763Z,10.60
2018-09-04T04:28:29.021Z,6.50
2018-09-04T04:38:30.272Z,6.33
2018-09-04T04:48:31.541Z,6.27
2018-09-04T04:58:33.601Z,9.77
2018-09-04T05:08:34.871Z,6.77
2018-09-04T05:18:37.652Z,7.33
2018-09-04T05:28:39.046Z,8.27
2018-09-04T05:38:40.308Z,4.80
2018-09-04T05:48:41.637Z,5.87
2018-09-04T05:58:42.869Z,6.37
2018-09-04T06:08:44.122Z,9.13
2018-09-04T06:18:45.366Z,10.07
2018-09-04T06:28:46.616Z,5.97
2018-09-04T06:38:47.885Z,9.70
2018-09-04T06:48:51.472Z,7.43
2018-09-04T06:58:52.911Z,6.53
2018-09-04T07:08:54.191Z,6.07
2018-09-04T07:18:55.442Z,8.50
2018-09-04T07:28:56.750Z,6.53
2018-09-04T07:38:58.007Z,5.73
2018-09-04T07:49:00.023Z,5.97
2018-09-04T07:59:02.058Z,7.23
2018-09-04T08:09:03.303Z,7.07
2018-09-04T08:19:04.538Z,7.63
2018-09-04T08:29:07.626Z,5.80
2018-09-04T08:39:09.162Z,6.47
2018-09-04T08:59:18.476Z,6.67
2018-09-04T09:09:20.387Z,5.57
2018-09-04T09:19:21.752Z,10.17
2018-09-04T09:29:23.010Z,9.90
2018-09-04T09:39:24.279Z,8.73
2018-09-04T09:59:32.124Z,8.70
2018-09-04T10:09:33.368Z,8.97
2018-09-04T10:19:34.643Z,5.97
2018-09-04T10:29:35.937Z,6.97
2018-09-04T10:39:37.198Z,8.97
2018-09-04T10:49:39.426Z,8.57
2018-09-04T10:59:41.539Z,6.70
2018-09-04T11:09:42.986Z,6.35
2018-09-04T11:19:44.132Z,6.12
2018-09-04T11:29:46.213Z,6.05
2018-09-04T11:39:47.443Z,5.53
2018-09-04T11:49:53.824Z,7.20
2018-09-04T11:59:55.918Z,8.02
2018-09-04T12:09:57.217Z,6.82
2018-09-04T12:19:59.405Z,6.10
2018-09-04T12:30:02.387Z,5.57
2018-09-04T12:40:03.690Z,6.27
2018-09-04T12:50:05.131Z,8.77
2018-09-04T13:00:06.590Z,6.70
2018-09-04T13:10:07.901Z,5.67
2018-09-04T13:20:09.150Z,5.82
2018-09-04T13:30:11.160Z,6.47
2018-09-04T13:40:15.922Z,6.50
2018-09-04T13:50:18.094Z,9.20
2018-09-04T14:00:19.411Z,5.80
2018-09-04T14:10:21.443Z,7.28
2018-09-04T14:20:23.250Z,7.25
2018-09-04T14:30:24.706Z,7.55
2018-09-04T14:40:27.423Z,7.03
2018-09-04T14:50:28.723Z,10.82
2018-09-04T15:00:30.008Z,7.70
2018-09-04T15:10:31.354Z,7.78
2018-09-04T15:20:33.374Z,5.83
2018-09-04T15:30:34.670Z,10.00
2018-09-04T15:40:36.048Z,6.20
2018-09-04T15:50:38.063Z,10.67
2018-09-04T16:00:39.354Z,10.10
2018-09-04T16:10:40.642Z,8.13
2018-09-04T16:20:41.942Z,6.47
2018-09-04T16:30:43.330Z,6.73
2018-09-04T16:40:44.762Z,6.53
2018-09-04T16:50:46.806Z,6.43
2018-09-04T17:00:48.060Z,5.23
2018-09-04T17:10:50.242Z,8.90
2018-09-04T17:20:52.569Z,5.83
2018-09-04T17:30:53.835Z,8.20
2018-09-04T17:40:55.095Z,9.60
2018-09-04T17:50:57.132Z,6.93
2018-09-04T18:00:58.444Z,7.33
2018-09-04T18:10:59.898Z,8.57
2018-09-04T18:21:01.936Z,6.13
2018-09-04T18:31:03.347Z,5.90
2018-09-04T18:41:04.624Z,9.83
2018-09-04T18:51:05.905Z,6.80
2018-09-04T19:01:07.926Z,8.43
2018-09-04T19:11:09.206Z,7.90
2018-09-04T19:21:11.255Z,7.30
2018-09-04T19:31:12.510Z,7.60
2018-09-04T19:41:13.774Z,6.27
2018-09-04T19:51:15.064Z,7.07
2018-09-04T20:11:23.679Z,7.03
2018-09-04T20:21:24.975Z,8.33
2018-09-04T20:31:26.416Z,7.77
2018-09-04T20:41:27.683Z,8.37
2018-09-04T20:51:28.977Z,7.40
2018-09-04T21:01:30.388Z,8.83
2018-09-04T21:11:31.651Z,7.97
2018-09-04T21:21:32.900Z,9.40
2018-09-04T21:31:34.180Z,10.80
2018-09-04T21:41:35.399Z,6.87
2018-09-04T21:51:36.784Z,8.10
2018-09-04T22:01:38.066Z,6.67
2018-09-04T22:11:39.362Z,8.57
2018-09-04T22:21:40.786Z,8.97
2018-09-04T22:31:42.052Z,7.60
2018-09-04T22:41:43.342Z,7.40
2018-09-04T22:51:44.581Z,10.47
2018-09-04T23:01:45.835Z,9.90
2018-09-04T23:11:47.134Z,8.00
2018-09-04T23:21:48.448Z,7.70
2018-09-04T23:31:49.693Z,7.67
2018-09-04T23:41:50.974Z,7.77
2018-09-04T23:51:52.230Z,8.67
